Time;durP1;ratioP1;P1;durP2;ratioP2;P2;SDS_P1;SDS_P2;PMS_P1;PMS_P2;Temp;Humidity;BMP_temperature;BMP_pressure;BME280_temperature;BME280_humidity;BME280_pressure;Samples;Min_cycle;Max_cycle;Signal;HPM_P1;HPM_P2
2022/04/10 00:00:24;;;;;;;9.50;3.80;;;3.30;99.90;;;;;;5053828;28;20177;-83
2022/04/10 00:02:50;;;;;;;13.73;3.77;;;3.30;99.90;;;;;;5053825;28;20201;-82
2022/04/10 00:05:15;;;;;;;11.30;3.50;;;3.20;99.90;;;;;;5055339;28;20181;-83
2022/04/10 00:07:41;;;;;;;9.90;3.70;;;3.20;99.90;;;;;;5056112;28;20518;-84
2022/04/10 00:10:07;;;;;;;10.63;3.60;;;3.30;99.90;;;;;;5057462;28;20182;-82
2022/04/10 00:12:34;;;;;;;10.13;3.70;;;3.30;99.90;;;;;;5057231;28;20244;-83
2022/04/10 00:15:00;;;;;;;8.97;3.30;;;3.30;99.90;;;;;;5057461;28;20272;-83
2022/04/10 00:17:25;;;;;;;14.07;3.73;;;3.30;99.90;;;;;;5057358;28;20206;-84
2022/04/10 00:19:51;;;;;;;9.87;2.93;;;3.30;99.90;;;;;;5057340;28;20170;-83
2022/04/10 00:22:17;;;;;;;9.53;3.03;;;3.30;99.90;;;;;;5056550;28;20192;-83
2022/04/10 00:24:42;;;;;;;9.50;2.87;;;3.40;99.90;;;;;;5057102;28;20182;-83
2022/04/10 00:27:12;;;;;;;10.63;2.90;;;3.40;99.90;;;;;;5057373;28;20208;-83
2022/04/10 00:29:37;;;;;;;8.30;2.90;;;3.40;99.90;;;;;;5057302;28;20548;-82
2022/04/10 00:32:04;;;;;;;6.63;2.50;;;3.30;99.90;;;;;;5057053;28;20209;-83
2022/04/10 00:34:29;;;;;;;7.00;2.60;;;3.40;99.90;;;;;;5057212;28;20198;-82
2022/04/10 00:36:55;;;;;;;6.53;2.53;;;3.40;99.90;;;;;;5056512;28;20197;-83
2022/04/10 00:39:21;;;;;;;8.13;2.50;;;3.30;99.90;;;;;;5056963;28;20192;-83
2022/04/10 00:41:46;;;;;;;7.40;2.20;;;3.20;99.90;;;;;;5056795;28;20282;-84
2022/04/10 00:44:12;;;;;;;8.97;2.63;;;3.20;99.90;;;;;;5057098;28;20166;-83
2022/04/10 00:46:39;;;;;;;4.77;2.10;;;3.20;99.90;;;;;;5056916;28;20545;-84
2022/04/10 00:49:05;;;;;;;9.47;2.43;;;3.10;99.90;;;;;;5055439;28;20474;-82
2022/04/10 00:51:41;;;;;;;5.87;2.53;;;3.20;99.90;;;;;;5056284;28;20220;-82
2022/04/10 00:54:30;;;;;;;7.23;2.47;;;3.20;99.90;;;;;;5056757;28;20216;-82
2022/04/10 00:56:57;;;;;;;6.37;2.50;;;3.10;99.90;;;;;;5055357;28;20688;-84
2022/04/10 00:59:24;;;;;;;10.57;3.27;;;3.10;99.90;;;;;;5056651;28;20255;-84
2022/04/10 01:01:50;;;;;;;11.87;3.53;;;3.10;99.90;;;;;;5056496;28;20544;-84
2022/04/10 01:04:16;;;;;;;8.53;4.13;;;3.10;99.90;;;;;;5055078;28;20212;-83
2022/04/10 01:06:50;;;;;;;9.70;3.80;;;3.10;99.90;;;;;;5056454;28;20222;-82
2022/04/10 01:09:17;;;;;;;11.10;4.13;;;3.20;99.90;;;;;;5056350;28;20164;-82
2022/04/10 01:11:43;;;;;;;12.20;4.00;;;3.20;99.90;;;;;;5056091;28;20282;-83
2022/04/10 01:14:09;;;;;;;11.83;4.33;;;3.20;99.90;;;;;;5055129;28;20220;-80
2022/04/10 01:16:36;;;;;;;11.03;4.47;;;3.30;99.90;;;;;;5055521;28;20686;-83
2022/04/10 01:19:03;;;;;;;11.27;4.30;;;3.30;99.90;;;;;;5056108;28;20174;-79
2022/04/10 01:21:32;;;;;;;11.20;4.50;;;3.30;99.90;;;;;;5054583;28;20193;-80
2022/04/10 01:23:58;;;;;;;9.60;4.40;;;3.40;99.90;;;;;;5056261;28;20632;-83
2022/04/10 01:26:26;;;;;;;9.77;3.67;;;3.40;99.90;;;;;;5056208;28;20240;-84
2022/04/10 01:29:13;;;;;;;11.67;4.30;;;3.50;99.90;;;;;;5054611;28;20178;-83
2022/04/10 01:31:44;;;;;;;8.80;3.83;;;3.50;99.90;;;;;;5056035;28;20209;-81
2022/04/10 01:34:15;;;;;;;11.50;3.77;;;3.50;99.90;;;;;;5056238;28;20172;-83
2022/04/10 01:36:42;;;;;;;12.00;2.90;;;3.50;99.90;;;;;;5054504;28;20189;-80
2022/04/10 01:39:10;;;;;;;8.93;3.23;;;3.50;99.90;;;;;;5055621;28;20174;-82
2022/04/10 01:41:36;;;;;;;9.33;3.00;;;3.50;99.90;;;;;;5049915;28;20567;-79
2022/04/10 01:44:04;;;;;;;8.97;3.33;;;3.50;99.90;;;;;;5035961;28;20193;-81
2022/04/10 01:46:31;;;;;;;7.27;2.70;;;3.50;99.90;;;;;;5034613;28;20193;-82
2022/04/10 01:48:58;;;;;;;12.67;3.10;;;3.50;99.90;;;;;;5035679;28;20206;-84
2022/04/10 01:51:24;;;;;;;8.80;2.80;;;3.50;99.90;;;;;;5044273;28;20213;-83
2022/04/10 01:53:51;;;;;;;8.57;2.80;;;3.50;99.90;;;;;;5054312;28;20181;-84
2022/04/10 01:56:17;;;;;;;9.23;2.97;;;3.50;99.90;;;;;;5055748;28;20215;-83
2022/04/10 01:58:44;;;;;;;8.10;2.53;;;3.40;99.90;;;;;;5055646;28;20182;-84
2022/04/10 02:01:12;;;;;;;11.20;3.30;;;3.40;99.90;;;;;;5055616;28;20607;-84
2022/04/10 02:03:38;;;;;;;10.03;2.60;;;3.40;99.90;;;;;;5055371;28;20676;-83
2022/04/10 02:06:06;;;;;;;10.70;2.87;;;3.40;99.90;;;;;;5055419;28;20231;-85
2022/04/10 02:08:32;;;;;;;6.07;2.53;;;3.40;99.90;;;;;;5055071;28;20226;-82
2022/04/10 02:10:58;;;;;;;7.23;2.30;;;3.40;99.90;;;;;;5055222;28;20263;-83
2022/04/10 02:13:24;;;;;;;8.73;2.30;;;3.40;99.90;;;;;;5055257;28;20510;-84
2022/04/10 02:15:50;;;;;;;6.77;2.20;;;3.40;99.90;;;;;;5055163;28;20173;-83
2022/04/10 02:18:16;;;;;;;7.30;2.53;;;3.40;99.90;;;;;;5055242;28;20495;-84
2022/04/10 02:20:42;;;;;;;8.23;2.40;;;3.40;99.90;;;;;;5054912;28;20268;-83
2022/04/10 02:23:08;;;;;;;13.57;2.60;;;3.30;99.90;;;;;;5054880;28;20185;-84
2022/04/10 02:25:34;;;;;;;7.37;2.13;;;3.30;99.90;;;;;;5055058;28;20253;-84
2022/04/10 02:28:00;;;;;;;10.50;1.93;;;3.30;99.90;;;;;;5054323;28;20173;-83
2022/04/10 02:30:26;;;;;;;10.50;2.63;;;3.30;99.90;;;;;;5070153;28;20185;-79
2022/04/10 02:32:52;;;;;;;8.03;2.43;;;3.30;99.90;;;;;;5053537;28;20206;-83
2022/04/10 02:35:18;;;;;;;12.70;3.13;;;3.20;99.90;;;;;;5054783;28;20227;-84
2022/04/10 02:37:46;;;;;;;12.10;2.83;;;3.20;99.90;;;;;;5053372;28;20174;-83
2022/04/10 02:40:18;;;;;;;11.03;2.20;;;3.20;99.90;;;;;;5053666;28;20178;-82
2022/04/10 02:42:44;;;;;;;11.13;3.37;;;3.20;99.90;;;;;;5054479;28;20222;-83
2022/04/10 02:45:10;;;;;;;8.60;2.70;;;3.20;99.90;;;;;;5054852;28;20609;-85
2022/04/10 02:47:36;;;;;;;7.13;2.57;;;3.20;99.90;;;;;;5054723;28;20220;-82
2022/04/10 02:50:03;;;;;;;9.50;2.57;;;3.20;99.90;;;;;;5053362;28;20178;-84
2022/04/10 02:52:29;;;;;;;9.07;2.47;;;3.20;99.90;;;;;;5054168;28;20209;-83
2022/04/10 02:54:55;;;;;;;9.97;3.00;;;3.20;99.90;;;;;;5054477;28;20173;-79
2022/04/10 02:57:20;;;;;;;12.47;3.03;;;3.20;99.90;;;;;;5054382;28;20161;-80
2022/04/10 02:59:46;;;;;;;10.63;3.27;;;3.20;99.90;;;;;;5054603;28;20195;-78
2022/04/10 03:02:12;;;;;;;13.40;3.23;;;3.20;99.90;;;;;;5054333;28;20219;-80
2022/04/10 03:04:37;;;;;;;11.50;3.00;;;3.10;99.90;;;;;;5054246;28;20182;-79
2022/04/10 03:07:03;;;;;;;8.90;2.63;;;3.10;99.90;;;;;;5053959;28;20593;-78
2022/04/10 03:09:29;;;;;;;8.03;2.73;;;3.10;99.90;;;;;;5054245;28;20616;-79
2022/04/10 03:11:55;;;;;;;7.87;2.87;;;3.00;99.90;;;;;;5052849;28;20262;-79
2022/04/10 03:14:21;;;;;;;13.17;2.23;;;3.00;99.90;;;;;;5054218;28;20195;-79
2022/04/10 03:16:46;;;;;;;8.37;2.57;;;3.00;99.90;;;;;;5054252;28;20170;-80
2022/04/10 03:19:12;;;;;;;11.30;3.10;;;3.10;99.90;;;;;;5053944;28;20166;-80
2022/04/10 03:21:38;;;;;;;10.23;2.93;;;3.10;99.90;;;;;;5053491;28;20184;-79
2022/04/10 03:24:04;;;;;;;11.23;3.50;;;3.10;99.90;;;;;;5052987;28;20196;-79
2022/04/10 03:26:30;;;;;;;8.87;3.50;;;3.10;99.90;;;;;;5054260;28;20193;-82
2022/04/10 03:28:56;;;;;;;8.47;3.30;;;3.10;99.90;;;;;;5052834;28;20174;-84
2022/04/10 03:31:23;;;;;;;13.97;3.70;;;3.20;99.90;;;;;;5054129;28;20251;-78
2022/04/10 03:33:52;;;;;;;11.60;3.70;;;3.20;99.90;;;;;;5053984;28;20181;-82
2022/04/10 03:36:17;;;;;;;14.57;4.60;;;3.20;99.90;;;;;;5053812;28;20185;-79
2022/04/10 03:38:43;;;;;;;10.60;3.90;;;3.30;99.90;;;;;;5052595;28;20182;-79
2022/04/10 03:41:09;;;;;;;7.93;3.40;;;3.30;99.90;;;;;;5057138;28;20504;-78
2022/04/10 03:43:35;;;;;;;7.70;3.50;;;3.30;99.90;;;;;;5057623;28;20256;-78
2022/04/10 03:46:01;;;;;;;14.67;3.77;;;3.30;99.90;;;;;;5057806;28;20173;-79
2022/04/10 03:48:27;;;;;;;14.47;3.83;;;3.40;99.90;;;;;;5057714;28;20166;-78
2022/04/10 03:50:53;;;;;;;16.40;4.13;;;3.40;99.90;;;;;;5057628;28;20212;-86
2022/04/10 03:53:19;;;;;;;15.37;4.13;;;3.40;99.90;;;;;;5056614;28;20228;-84
2022/04/10 03:55:45;;;;;;;8.93;3.10;;;3.40;99.90;;;;;;5057914;28;20182;-83
2022/04/10 03:58:11;;;;;;;12.70;3.53;;;3.40;99.90;;;;;;5056561;28;20184;-83
2022/04/10 04:00:37;;;;;;;13.17;3.13;;;3.40;99.90;;;;;;5057690;28;20178;-83
2022/04/10 04:03:03;;;;;;;7.70;3.33;;;3.40;99.90;;;;;;5057649;28;20253;-84
2022/04/10 04:05:29;;;;;;;12.57;3.37;;;3.40;99.90;;;;;;5057596;28;20241;-84
2022/04/10 04:07:55;;;;;;;10.10;3.00;;;3.40;99.90;;;;;;5057452;28;20632;-85
2022/04/10 04:10:21;;;;;;;14.57;3.60;;;3.40;99.90;;;;;;5057881;28;20176;-84
2022/04/10 04:12:47;;;;;;;13.97;3.20;;;3.40;99.90;;;;;;5057487;28;20287;-83
2022/04/10 04:15:13;;;;;;;7.83;2.90;;;3.50;99.90;;;;;;5057539;28;20174;-85
2022/04/10 04:17:39;;;;;;;11.73;3.33;;;3.50;99.90;;;;;;5057539;28;20291;-83
2022/04/10 04:20:09;;;;;;;9.67;3.30;;;3.50;99.90;;;;;;5057286;28;20627;-85
2022/04/10 04:22:35;;;;;;;11.60;3.60;;;3.40;99.90;;;;;;5057036;28;20170;-85
2022/04/10 04:25:02;;;;;;;12.67;3.17;;;3.50;99.90;;;;;;5056228;28;20555;-83
2022/04/10 04:27:28;;;;;;;11.67;3.57;;;3.50;99.90;;;;;;5057232;28;20158;-84
2022/04/10 04:29:53;;;;;;;15.20;3.23;;;3.60;99.90;;;;;;5057395;28;20166;-84
2022/04/10 04:32:19;;;;;;;9.33;3.10;;;3.60;99.90;;;;;;5056378;28;20794;-84
2022/04/10 04:34:47;;;;;;;9.73;2.80;;;3.60;99.90;;;;;;5055901;28;20280;-84
2022/04/10 04:37:13;;;;;;;10.00;2.97;;;3.60;99.90;;;;;;5057161;28;20202;-83
2022/04/10 04:39:38;;;;;;;13.00;2.50;;;3.50;99.90;;;;;;5057055;28;20181;-84
2022/04/10 04:42:05;;;;;;;13.40;3.20;;;3.50;99.90;;;;;;5055683;28;20229;-84
2022/04/10 04:44:30;;;;;;;12.33;2.87;;;3.50;99.90;;;;;;5057078;28;20192;-84
2022/04/10 04:46:57;;;;;;;10.77;3.13;;;3.50;99.90;;;;;;5055947;28;20574;-80
2022/04/10 04:49:24;;;;;;;11.30;2.70;;;3.60;99.90;;;;;;5055796;28;20279;-82
2022/04/10 04:51:49;;;;;;;12.83;3.40;;;3.60;99.90;;;;;;5055638;28;20212;-85
2022/04/10 04:54:15;;;;;;;9.13;2.97;;;3.50;99.90;;;;;;5057016;28;20174;-83
2022/04/10 04:56:41;;;;;;;9.23;3.57;;;3.50;99.90;;;;;;5055510;28;20181;-85
2022/04/10 04:59:07;;;;;;;10.40;2.77;;;3.60;99.90;;;;;;5055784;28;20181;-79
2022/04/10 05:01:32;;;;;;;7.07;2.70;;;3.50;99.90;;;;;;5056644;28;20174;-85
2022/04/10 05:03:59;;;;;;;15.43;3.40;;;3.50;99.90;;;;;;5072318;28;20181;-83
2022/04/10 05:06:25;;;;;;;12.83;3.37;;;3.50;99.90;;;;;;5056554;28;20174;-83
2022/04/10 05:08:51;;;;;;;13.23;3.27;;;3.50;99.90;;;;;;5056971;28;20176;-82
2022/04/10 05:11:17;;;;;;;13.57;4.00;;;3.40;99.90;;;;;;5056382;28;20638;-84
2022/04/10 05:13:43;;;;;;;8.33;3.20;;;3.50;99.90;;;;;;5056333;28;20207;-84
2022/04/10 05:16:10;;;;;;;11.67;3.27;;;3.40;99.90;;;;;;5055247;28;20179;-83
2022/04/10 05:18:36;;;;;;;8.43;3.53;;;3.50;99.90;;;;;;5056441;28;20320;-84
2022/04/10 05:21:03;;;;;;;8.57;2.90;;;3.50;99.90;;;;;;5055130;28;20245;-82
2022/04/10 05:23:29;;;;;;;7.37;2.77;;;3.40;99.90;;;;;;5056476;28;20178;-84
2022/04/10 05:25:55;;;;;;;14.00;3.60;;;3.30;99.90;;;;;;5056467;28;20534;-84
2022/04/10 05:28:22;;;;;;;12.43;2.67;;;3.40;99.90;;;;;;5056270;28;20627;-82
2022/04/10 05:30:48;;;;;;;12.97;3.13;;;3.40;99.90;;;;;;5055864;28;20174;-83
2022/04/10 05:33:14;;;;;;;16.87;3.87;;;3.40;99.90;;;;;;5056379;28;20264;-82
2022/04/10 05:35:40;;;;;;;11.17;2.90;;;3.40;99.90;;;;;;5054895;28;20247;-85
2022/04/10 05:38:06;;;;;;;11.17;3.27;;;3.50;99.90;;;;;;5055746;28;20201;-82
2022/04/10 05:40:32;;;;;;;11.13;2.83;;;3.50;99.90;;;;;;5055975;28;20261;-80
2022/04/10 05:42:58;;;;;;;10.23;2.80;;;3.50;99.90;;;;;;5055608;28;20234;-85
2022/04/10 05:45:24;;;;;;;7.23;2.30;;;3.50;99.90;;;;;;5055902;28;20213;-82
2022/04/10 05:47:50;;;;;;;8.73;2.60;;;3.50;99.90;;;;;;5054620;28;20174;-83
2022/04/10 05:50:16;;;;;;;7.20;2.00;;;3.60;99.90;;;;;;5055836;28;20183;-85
2022/04/10 05:52:44;;;;;;;10.70;2.80;;;3.60;99.90;;;;;;5055247;28;20209;-79
2022/04/10 05:55:11;;;;;;;11.50;2.77;;;3.60;99.90;;;;;;5055613;28;20173;-85
2022/04/10 05:57:37;;;;;;;9.07;2.50;;;3.60;99.90;;;;;;5055532;28;20205;-82
2022/04/10 06:00:08;;;;;;;7.77;2.57;;;3.50;99.90;;;;;;5055406;28;20216;-83
2022/04/10 06:02:34;;;;;;;10.10;2.77;;;3.50;99.90;;;;;;5055326;28;20170;-83
2022/04/10 06:05:01;;;;;;;10.57;3.13;;;3.40;99.90;;;;;;5055532;28;20227;-83
2022/04/10 06:07:26;;;;;;;12.90;3.27;;;3.40;99.90;;;;;;5055338;28;20180;-84
2022/04/10 06:09:52;;;;;;;18.83;3.60;;;3.50;99.90;;;;;;5055376;28;20181;-80
2022/04/10 06:12:18;;;;;;;12.23;3.23;;;3.70;99.90;;;;;;5055238;28;20210;-83
2022/04/10 06:14:44;;;;;;;12.03;2.73;;;3.70;99.90;;;;;;5053983;28;20683;-84
2022/04/10 06:17:09;;;;;;;11.90;3.17;;;3.80;99.90;;;;;;5055265;28;20174;-85
2022/04/10 06:19:35;;;;;;;12.07;3.60;;;3.80;99.90;;;;;;5055297;28;20189;-83
2022/04/10 06:22:01;;;;;;;17.20;3.40;;;4.00;99.90;;;;;;5055014;28;20185;-85
2022/04/10 06:24:27;;;;;;;7.60;2.43;;;4.10;99.90;;;;;;5055158;28;20184;-83
2022/04/10 06:26:56;;;;;;;9.77;2.80;;;4.30;99.90;;;;;;5054979;28;20260;-84
2022/04/10 06:29:22;;;;;;;12.10;3.07;;;4.30;99.90;;;;;;5053814;28;20535;-79
2022/04/10 06:31:48;;;;;;;9.27;2.63;;;4.30;99.90;;;;;;5054773;28;20252;-79
2022/04/10 06:34:15;;;;;;;9.80;2.43;;;4.40;99.90;;;;;;5055004;28;20504;-79
2022/04/10 06:36:41;;;;;;;17.87;3.33;;;4.40;99.90;;;;;;5054498;28;20174;-79
2022/04/10 06:39:07;;;;;;;11.10;2.83;;;4.40;99.90;;;;;;5054833;28;20170;-80
2022/04/10 06:41:33;;;;;;;10.40;2.73;;;4.50;99.90;;;;;;5054233;28;20494;-80
2022/04/10 06:43:59;;;;;;;11.03;2.67;;;4.50;99.90;;;;;;5053259;28;20579;-85
2022/04/10 06:46:26;;;;;;;13.17;2.30;;;4.50;99.90;;;;;;5054680;28;20217;-83
2022/04/10 06:48:55;;;;;;;11.63;2.67;;;4.50;99.90;;;;;;5053265;28;20182;-83
2022/04/10 06:51:24;;;;;;;12.70;2.40;;;4.50;99.90;;;;;;5054374;28;20213;-84
2022/04/10 06:53:50;;;;;;;10.37;2.53;;;4.60;99.90;;;;;;5054730;28;20170;-85
2022/04/10 06:56:16;;;;;;;13.00;2.90;;;4.70;99.90;;;;;;5054355;28;20181;-83
2022/04/10 06:58:42;;;;;;;13.27;2.70;;;4.80;99.90;;;;;;5054626;28;20603;-83
2022/04/10 07:01:08;;;;;;;17.70;3.13;;;4.80;99.90;;;;;;5054488;28;20255;-82
2022/04/10 07:03:34;;;;;;;12.90;2.63;;;4.90;99.90;;;;;;5054332;28;20228;-83
2022/04/10 07:06:00;;;;;;;7.90;2.43;;;4.90;99.90;;;;;;5054549;28;20162;-84
2022/04/10 07:08:26;;;;;;;10.80;2.63;;;4.90;99.90;;;;;;5052835;28;20607;-83
2022/04/10 07:10:53;;;;;;;15.83;2.83;;;5.10;99.90;;;;;;5052966;28;20246;-80
2022/04/10 07:13:20;;;;;;;16.27;2.70;;;5.20;99.90;;;;;;5054351;28;20177;-83
2022/04/10 07:15:47;;;;;;;15.33;2.50;;;5.10;99.90;;;;;;5052524;28;20177;-83
2022/04/10 07:18:14;;;;;;;12.50;2.30;;;5.30;99.90;;;;;;5054398;28;20166;-83
2022/04/10 07:20:40;;;;;;;9.80;3.10;;;5.40;99.90;;;;;;5052858;28;20182;-84
2022/04/10 07:25:50;;;;;;;14.70;2.83;;;5.40;99.90;;;;;;5054288;28;20169;-83
2022/04/10 07:28:16;;;;;;;7.80;2.27;;;5.30;99.90;;;;;;5054147;28;20501;-83
2022/04/10 07:30:43;;;;;;;9.83;2.33;;;5.40;99.90;;;;;;5054093;28;20517;-79
2022/04/10 07:33:09;;;;;;;8.13;2.43;;;5.40;99.90;;;;;;5054047;28;20549;-83
2022/04/10 07:35:35;;;;;;;9.50;2.60;;;5.60;99.90;;;;;;5054055;28;20236;-83
2022/04/10 07:38:01;;;;;;;12.47;3.00;;;5.60;99.90;;;;;;5052568;28;20253;-83
2022/04/10 07:40:27;;;;;;;9.57;2.60;;;5.70;99.90;;;;;;5054286;28;20640;-82
2022/04/10 07:42:53;;;;;;;12.47;2.10;;;5.70;99.90;;;;;;5053902;28;20229;-83
2022/04/10 07:48:03;;;;;;;9.33;2.37;;;5.80;99.90;;;;;;5053989;28;20225;-84
2022/04/10 07:50:30;;;;;;;10.60;2.80;;;5.80;99.90;;;;;;5053833;28;20189;-83
2022/04/10 07:52:56;;;;;;;8.67;2.20;;;5.80;99.90;;;;;;5053608;28;20198;-84
2022/04/10 07:55:22;;;;;;;15.97;3.23;;;5.80;99.90;;;;;;5054010;28;20166;-84
2022/04/10 07:57:51;;;;;;;13.33;3.20;;;5.90;99.90;;;;;;5053923;28;20166;-79
2022/04/10 08:00:17;;;;;;;10.77;2.20;;;5.90;99.90;;;;;;5052844;28;20231;-79
2022/04/10 08:02:48;;;;;;;12.33;2.73;;;6.00;99.90;;;;;;5053495;28;20174;-79
2022/04/10 08:05:14;;;;;;;10.47;2.20;;;6.20;99.90;;;;;;5053871;28;20178;-78
2022/04/10 08:07:44;;;;;;;11.63;2.07;;;6.30;99.90;;;;;;5053261;28;20255;-81
2022/04/10 08:10:13;;;;;;;11.50;2.60;;;6.20;99.90;;;;;;5053665;28;20489;-79
2022/04/10 08:12:40;;;;;;;12.37;2.80;;;5.90;99.90;;;;;;5053464;28;20527;-78
2022/04/10 08:15:07;;;;;;;8.00;2.43;;;6.00;99.90;;;;;;5053502;28;20170;-80
2022/04/10 08:17:33;;;;;;;8.23;2.40;;;6.20;99.90;;;;;;5053457;28;20174;-78
2022/04/10 08:19:59;;;;;;;11.67;2.37;;;6.30;99.90;;;;;;5053855;28;20167;-83
2022/04/10 08:22:27;;;;;;;9.27;2.20;;;6.20;99.90;;;;;;5052105;28;20186;-82
2022/04/10 08:24:53;;;;;;;10.63;2.20;;;6.30;99.90;;;;;;5053599;28;20173;-82
2022/04/10 08:27:20;;;;;;;9.30;2.40;;;6.40;99.90;;;;;;5055263;28;20181;-84
2022/04/10 08:29:46;;;;;;;8.17;2.03;;;6.50;99.90;;;;;;5057118;28;20197;-83
2022/04/10 08:32:12;;;;;;;8.83;1.93;;;6.70;99.90;;;;;;5056983;28;20206;-83
2022/04/10 08:34:37;;;;;;;7.17;1.70;;;6.90;99.90;;;;;;5057025;28;20231;-81
2022/04/10 08:37:06;;;;;;;6.27;1.90;;;7.10;99.90;;;;;;5056671;28;20178;-82
2022/04/10 08:39:33;;;;;;;9.83;1.77;;;7.10;99.90;;;;;;5057391;28;20181;-81
2022/04/10 08:42:05;;;;;;;11.30;2.27;;;7.10;99.90;;;;;;5055447;28;20555;-82
2022/04/10 08:44:32;;;;;;;8.83;2.17;;;7.10;99.90;;;;;;5056795;28;20272;-84
2022/04/10 08:47:00;;;;;;;7.30;2.13;;;6.90;99.90;;;;;;5056909;28;20177;-82
2022/04/10 08:49:31;;;;;;;10.40;1.63;;;6.80;99.90;;;;;;5055502;28;20230;-82
2022/04/10 08:51:58;;;;;;;9.73;2.07;;;6.70;99.90;;;;;;5055149;28;20213;-82
2022/04/10 08:54:25;;;;;;;13.03;3.07;;;6.70;99.90;;;;;;5056293;28;20517;-83
2022/04/10 08:56:51;;;;;;;7.33;2.13;;;6.80;99.90;;;;;;5056484;28;20173;-83
2022/04/10 08:59:18;;;;;;;7.53;2.10;;;6.80;99.90;;;;;;5056452;28;20177;-81
2022/04/10 09:01:43;;;;;;;12.37;2.27;;;6.80;99.90;;;;;;5056474;28;20173;-82
2022/04/10 09:04:09;;;;;;;8.03;2.10;;;6.60;99.90;;;;;;5056512;28;20608;-83
2022/04/10 09:06:41;;;;;;;7.13;2.10;;;6.80;99.90;;;;;;5056660;28;20275;-82
2022/04/10 09:09:16;;;;;;;8.13;2.13;;;6.90;99.90;;;;;;5056215;28;20209;-82
2022/04/10 09:11:43;;;;;;;8.60;2.43;;;6.80;99.90;;;;;;5054921;28;20209;-82
2022/04/10 09:14:09;;;;;;;10.73;1.67;;;6.70;99.90;;;;;;5056375;28;20236;-83
2022/04/10 09:16:35;;;;;;;5.97;1.43;;;6.80;99.90;;;;;;5056330;28;20185;-83
2022/04/10 09:19:07;;;;;;;10.17;2.00;;;7.20;99.90;;;;;;5055214;28;20495;-83
2022/04/10 09:21:43;;;;;;;8.17;2.30;;;7.60;99.90;;;;;;5054818;28;20525;-83
2022/04/10 09:24:13;;;;;;;7.50;2.00;;;7.80;99.90;;;;;;5054586;28;20181;-82
2022/04/10 09:26:48;;;;;;;12.80;1.90;;;8.00;99.90;;;;;;5055016;28;20166;-82
2022/04/10 09:29:16;;;;;;;7.70;1.60;;;8.10;99.90;;;;;;5055960;28;20162;-84
2022/04/10 09:31:42;;;;;;;7.17;1.73;;;8.10;99.90;;;;;;5055791;28;20208;-81
2022/04/10 09:34:10;;;;;;;6.27;1.60;;;8.30;99.90;;;;;;5055998;28;20256;-82
2022/04/10 09:36:43;;;;;;;7.60;1.90;;;8.30;99.90;;;;;;5055820;28;20170;-83
2022/04/10 09:39:29;;;;;;;5.40;1.90;;;8.50;99.90;;;;;;5055382;28;20466;-80
2022/04/10 09:42:06;;;;;;;8.40;1.53;;;8.50;99.90;;;;;;5055660;28;20221;-84
2022/04/10 09:44:34;;;;;;;11.20;1.80;;;8.40;99.90;;;;;;5054384;28;20174;-83
2022/04/10 09:47:02;;;;;;;7.03;1.60;;;8.20;99.90;;;;;;5055507;28;20173;-82
2022/04/10 09:49:48;;;;;;;5.83;1.63;;;8.00;99.90;;;;;;5055702;28;20627;-83
2022/04/10 09:52:17;;;;;;;7.53;1.73;;;7.80;99.90;;;;;;5053985;28;20526;-83
2022/04/10 09:54:47;;;;;;;12.07;2.20;;;7.90;99.90;;;;;;5055490;28;20178;-81
2022/04/10 09:57:22;;;;;;;9.03;1.63;;;7.90;99.90;;;;;;5055451;28;20158;-81
2022/04/10 09:59:50;;;;;;;6.10;1.90;;;7.60;99.90;;;;;;5054113;28;20223;-81
2022/04/10 10:02:18;;;;;;;6.80;1.40;;;7.50;99.90;;;;;;5055324;28;20215;-82
2022/04/10 10:04:46;;;;;;;5.23;1.47;;;7.50;99.90;;;;;;5055442;28;20248;-81
2022/04/10 10:07:16;;;;;;;10.00;2.00;;;7.90;99.90;;;;;;5054993;28;20170;-83
2022/04/10 10:09:43;;;;;;;7.90;2.27;;;8.10;99.90;;;;;;5055269;28;20233;-82
2022/04/10 10:12:10;;;;;;;5.97;1.60;;;8.10;99.90;;;;;;5054953;28;20205;-81
2022/04/10 10:14:37;;;;;;;9.60;1.30;;;8.00;99.90;;;;;;5055025;28;20546;-81
2022/04/10 10:17:05;;;;;;;6.20;1.63;;;7.70;99.90;;;;;;5055160;28;20181;-81
2022/04/10 10:19:35;;;;;;;6.13;1.53;;;7.50;99.90;;;;;;5053738;28;20173;-81
2022/04/10 10:22:03;;;;;;;5.33;1.73;;;7.30;99.90;;;;;;5054582;28;20602;-80
2022/04/10 10:24:54;;;;;;;6.50;1.90;;;7.10;99.90;;;;;;5054787;28;20178;-81
2022/04/10 10:27:32;;;;;;;4.87;1.53;;;7.10;99.90;;;;;;5027487;28;20233;-82
2022/04/10 10:30:23;;;;;;;3.57;1.30;;;7.30;99.90;;;;;;5053536;28;20181;-77
2022/04/10 10:32:55;;;;;;;7.97;1.70;;;7.70;99.90;;;;;;5054575;28;20236;-82
2022/04/10 10:35:42;;;;;;;6.73;1.33;;;7.90;99.90;;;;;;5054786;28;20237;-82
2022/04/10 10:38:31;;;;;;;5.20;1.57;;;8.20;99.90;;;;;;5054349;28;20170;-78
2022/04/10 10:41:30;;;;;;;8.67;1.73;;;8.40;99.90;;;;;;5053200;28;20170;-79
2022/04/10 10:43:57;;;;;;;8.67;1.50;;;8.60;99.90;;;;;;5021670;28;20229;-81
2022/04/10 10:46:34;;;;;;;3.27;1.23;;;8.70;99.90;;;;;;5054476;28;20181;-79
2022/04/10 10:49:17;;;;;;;4.57;1.73;;;8.80;99.90;;;;;;5053864;28;20682;-79
2022/04/10 10:51:44;;;;;;;5.53;1.57;;;9.30;99.90;;;;;;5054280;28;20205;-78
2022/04/10 10:54:26;;;;;;;8.50;1.53;;;9.50;99.90;;;;;;5053011;28;20162;-78
2022/04/10 10:56:52;;;;;;;3.53;1.10;;;9.40;99.90;;;;;;5054578;28;20154;-80
2022/04/10 10:59:43;;;;;;;5.40;1.50;;;9.00;99.10;;;;;;5054366;28;20280;-78
2022/04/10 11:02:14;;;;;;;5.47;1.73;;;8.60;99.90;;;;;;5054210;28;20162;-81
2022/04/10 11:04:52;;;;;;;4.17;1.37;;;8.50;99.90;;;;;;5054347;28;20162;-78
2022/04/10 11:07:18;;;;;;;5.57;1.37;;;9.00;99.90;;;;;;5054093;28;20508;-82
2022/04/10 11:09:58;;;;;;;5.43;1.00;;;9.40;99.90;;;;;;5054138;28;20245;-80
2022/04/10 11:12:50;;;;;;;8.33;1.83;;;9.60;99.90;;;;;;5054077;28;20197;-81
2022/04/10 11:15:19;;;;;;;3.10;1.47;;;9.60;99.90;;;;;;5053062;28;20181;-83
2022/04/10 11:17:45;;;;;;;5.10;1.47;;;9.70;99.90;;;;;;5052733;28;20264;-82
2022/04/10 11:20:12;;;;;;;6.57;1.90;;;9.60;99.90;;;;;;5054253;28;20162;-79
2022/04/10 11:22:55;;;;;;;9.80;1.73;;;9.40;99.90;;;;;;5053672;28;20178;-79
2022/04/10 11:25:39;;;;;;;8.47;1.93;;;9.40;99.90;;;;;;5052925;28;20212;-81
2022/04/10 11:28:10;;;;;;;6.83;2.33;;;9.30;99.90;;;;;;5054151;28;20158;-82
2022/04/10 11:30:45;;;;;;;3.80;1.20;;;9.70;99.90;;;;;;5054110;28;20593;-81
2022/04/10 11:33:12;;;;;;;5.90;1.50;;;9.80;98.90;;;;;;5053736;28;20219;-81
2022/04/10 11:35:40;;;;;;;6.60;1.70;;;9.50;99.60;;;;;;5053927;28;20188;-79
2022/04/10 11:38:11;;;;;;;5.17;1.40;;;9.30;99.90;;;;;;5053628;28;20170;-79
2022/04/10 11:40:42;;;;;;;7.20;1.30;;;9.60;99.90;;;;;;5054027;28;20157;-79
2022/04/10 11:43:09;;;;;;;3.53;1.20;;;9.80;99.90;;;;;;5053645;28;20226;-78
2022/04/10 11:45:35;;;;;;;6.43;1.40;;;9.80;99.90;;;;;;5054072;28;20519;-79
2022/04/10 11:48:04;;;;;;;3.47;1.00;;;9.60;99.90;;;;;;5052641;28;20276;-78
2022/04/10 11:50:30;;;;;;;7.10;1.20;;;9.50;98.80;;;;;;5052522;28;20201;-78
2022/04/10 11:53:03;;;;;;;5.87;1.53;;;9.20;99.30;;;;;;5053391;28;20210;-78
2022/04/10 11:55:39;;;;;;;6.57;1.30;;;9.10;99.90;;;;;;5053790;28;20170;-78
2022/04/10 11:58:19;;;;;;;4.53;1.10;;;8.90;99.80;;;;;;5053712;28;20185;-78
2022/04/10 12:00:49;;;;;;;4.80;1.50;;;8.80;99.90;;;;;;5054622;28;20154;-78
2022/04/10 12:03:14;;;;;;;5.17;1.20;;;8.50;99.90;;;;;;5057601;28;20181;-78
2022/04/10 12:05:41;;;;;;;2.87;1.10;;;8.50;99.90;;;;;;5057573;28;20170;-77
2022/04/10 12:08:07;;;;;;;5.13;0.90;;;8.70;99.90;;;;;;5055860;28;20234;-78
2022/04/10 12:10:33;;;;;;;5.27;1.20;;;8.70;99.90;;;;;;5057503;28;20174;-79
2022/04/10 12:13:01;;;;;;;1.57;0.80;;;9.20;99.90;;;;;;5055940;28;20206;-78
2022/04/10 12:15:27;;;;;;;2.13;0.93;;;9.80;99.90;;;;;;5057406;28;20174;-78
2022/04/10 12:18:13;;;;;;;5.57;1.30;;;9.80;99.90;;;;;;5057373;28;20185;-78
2022/04/10 12:20:40;;;;;;;3.73;1.00;;;9.40;99.90;;;;;;5057288;28;20264;-79
2022/04/10 12:23:20;;;;;;;3.97;1.10;;;9.00;99.90;;;;;;5055443;28;20178;-78
2022/04/10 12:25:49;;;;;;;2.70;1.20;;;8.80;99.90;;;;;;5055855;28;20231;-78
2022/04/10 12:28:16;;;;;;;7.20;1.67;;;8.40;99.90;;;;;;5057112;28;20182;-79
2022/04/10 12:30:43;;;;;;;3.67;1.37;;;8.40;99.90;;;;;;5057125;28;20655;-78
2022/04/10 12:33:09;;;;;;;4.17;1.33;;;8.30;99.90;;;;;;5056976;28;20216;-77
2022/04/10 12:35:39;;;;;;;4.67;1.40;;;8.50;99.90;;;;;;5056896;28;20495;-78
2022/04/10 12:38:06;;;;;;;4.57;1.33;;;8.50;99.90;;;;;;5056670;28;20174;-80
2022/04/10 12:40:32;;;;;;;4.20;0.90;;;8.60;99.90;;;;;;5056886;28;20166;-82
2022/04/10 12:43:03;;;;;;;3.53;1.20;;;8.80;99.90;;;;;;5056633;28;20233;-78
2022/04/10 12:45:35;;;;;;;5.87;1.30;;;9.10;99.90;;;;;;5056849;28;20174;-78
2022/04/10 12:48:18;;;;;;;3.17;1.20;;;9.50;99.90;;;;;;5056585;28;20162;-78
2022/04/10 12:50:44;;;;;;;6.47;1.73;;;9.90;99.90;;;;;;5056555;28;20205;-78
2022/04/10 12:53:13;;;;;;;4.03;1.20;;;10.20;99.90;;;;;;5071837;28;20237;-78
2022/04/10 12:55:39;;;;;;;4.23;1.27;;;10.30;99.10;;;;;;5055423;28;20189;-78
2022/04/10 12:58:09;;;;;;;3.90;1.30;;;10.30;98.90;;;;;;5056387;28;20170;-78
2022/04/10 13:00:43;;;;;;;4.30;1.10;;;10.10;98.70;;;;;;5056674;28;20162;-81
2022/04/10 13:03:46;;;;;;;6.00;1.20;;;9.80;99.90;;;;;;5056494;28;20481;-80